Time;durP1;ratioP1;P1;durP2;ratioP2;P2;SDS_P1;SDS_P2;PMS_P1;PMS_P2;Temp;Humidity;BMP_temperature;BMP_pressure;BME280_temperature;BME280_humidity;BME280_pressure;Samples;Min_cycle;Max_cycle;Signal;HPM_P1;HPM_P2
2022/05/29 00:00:47;;;;;;;;;;;;;;;22.78;50.42;99189.22;2053128;28;19973;-48
2022/05/29 00:01:47;;;;;;;;;;;;;;;22.78;50.40;99189.22;2049061;28;19924;-48
2022/05/29 00:02:48;;;;;;;;;;;;;;;22.77;50.69;99182.06;2049191;28;20483;-51
2022/05/29 00:03:49;;;;;;;;;;;;;;;22.77;50.72;99182.91;2050613;28;20332;-48
2022/05/29 00:04:50;;;;;;;;;;;;;;;22.76;50.68;99180.31;2052636;28;19909;-48
2022/05/29 00:05:50;;;;;;;;;;;;;;;22.77;50.72;99179.31;2052167;28;20988;-48
2022/05/29 00:06:51;;;;;;;;;;;;;;;22.75;50.91;99174.00;2052552;28;19910;-48
2022/05/29 00:07:52;;;;;;;;;;;;;;;22.75;50.72;99178.66;2052091;28;19968;-50
2022/05/29 00:08:52;;;;;;;;;;;;;;;22.76;50.78;99180.31;2046150;28;19910;-48
2022/05/29 00:09:52;;;;;;;;;;;;;;;22.76;50.75;99177.59;2052515;28;19916;-48
2022/05/29 00:10:53;;;;;;;;;;;;;;;22.75;50.92;99175.91;2048350;28;19918;-48
2022/05/29 00:11:55;;;;;;;;;;;;;;;22.75;50.85;99178.66;2049794;28;20287;-49
2022/05/29 00:12:55;;;;;;;;;;;;;;;22.75;50.79;99174.00;2052499;28;19929;-51
2022/05/29 00:14:00;;;;;;;;;;;;;;;22.75;50.96;99175.91;2049378;28;19913;-48
2022/05/29 00:15:01;;;;;;;;;;;;;;;22.74;50.95;99176.97;2050156;28;19925;-49
2022/05/29 00:16:01;;;;;;;;;;;;;;;22.75;50.97;99173.16;2048639;28;20353;-48
2022/05/29 00:17:01;;;;;;;;;;;;;;;22.73;50.78;99165.09;2052370;28;19918;-49
2022/05/29 00:18:02;;;;;;;;;;;;;;;22.74;50.70;99172.31;2049570;28;19917;-49
2022/05/29 00:19:02;;;;;;;;;;;;;;;22.74;50.64;99169.56;2051203;28;20769;-48
2022/05/29 00:20:03;;;;;;;;;;;;;;;22.74;50.67;99171.47;2052845;28;19928;-47
2022/05/29 00:21:05;;;;;;;;;;;;;;;22.74;50.80;99166.81;2051332;28;19925;-48
2022/05/29 00:22:06;;;;;;;;;;;;;;;22.75;50.91;99168.50;2052007;28;19972;-51
2022/05/29 00:23:06;;;;;;;;;;;;;;;22.75;50.58;99167.66;2052854;28;19918;-48
2022/05/29 00:24:07;;;;;;;;;;;;;;;22.74;50.78;99166.81;2053256;28;19921;-48
2022/05/29 00:25:09;;;;;;;;;;;;;;;22.75;50.69;99171.25;2051247;28;19914;-50
2022/05/29 00:26:10;;;;;;;;;;;;;;;22.75;50.70;99173.16;2052475;28;19965;-48
2022/05/29 00:27:11;;;;;;;;;;;;;;;22.76;50.78;99163.84;2058023;28;19914;-49
2022/05/29 00:28:11;;;;;;;;;;;;;;;22.74;50.81;99161.31;2058729;28;19921;-48
2022/05/29 00:29:12;;;;;;;;;;;;;;;22.76;50.81;99161.09;2050315;28;20334;-49
2022/05/29 00:30:13;;;;;;;;;;;;;;;22.75;50.93;99160.25;2054204;28;19917;-48
2022/05/29 00:31:14;;;;;;;;;;;;;;;22.76;50.68;99166.59;2061300;28;19988;-48
2022/05/29 00:32:14;;;;;;;;;;;;;;;22.75;50.81;99162.16;2059381;28;19924;-49
2022/05/29 00:33:14;;;;;;;;;;;;;;;22.75;50.95;99162.16;2051072;28;20064;-49
2022/05/29 00:34:15;;;;;;;;;;;;;;;22.75;50.94;99167.66;2051763;28;19925;-48
2022/05/29 00:35:16;;;;;;;;;;;;;;;22.74;51.05;99166.81;2049503;28;19917;-49
2022/05/29 00:36:16;;;;;;;;;;;;;;;22.74;51.04;99166.81;2052894;28;19914;-49
2022/05/29 00:37:16;;;;;;;;;;;;;;;22.75;51.02;99156.66;2050538;28;20032;-49
2022/05/29 00:38:17;;;;;;;;;;;;;;;22.75;51.09;99159.41;2052040;28;20025;-50
2022/05/29 00:39:17;;;;;;;;;;;;;;;22.74;51.08;99161.31;2052756;28;19940;-50
2022/05/29 00:40:18;;;;;;;;;;;;;;;22.74;50.98;99157.72;2050512;28;19918;-48
2022/05/29 00:41:22;;;;;;;;;;;;;;;22.73;51.17;99164.25;2052375;28;19985;-49
2022/05/29 00:42:23;;;;;;;;;;;;;;;22.72;51.23;99163.41;2058932;28;20363;-50
2022/05/29 00:43:24;;;;;;;;;;;;;;;22.73;51.29;99167.00;2056305;28;19972;-48
2022/05/29 00:44:26;;;;;;;;;;;;;;;22.72;51.43;99160.66;2049932;28;20003;-49
2022/05/29 00:45:27;;;;;;;;;;;;;;;22.71;51.46;99161.72;2050856;28;20008;-48
2022/05/29 00:46:29;;;;;;;;;;;;;;;22.71;51.39;99161.72;2050319;28;19917;-48
2022/05/29 00:47:29;;;;;;;;;;;;;;;22.72;51.52;99159.81;2051834;28;20816;-48
2022/05/29 00:48:30;;;;;;;;;;;;;;;22.72;51.36;99159.81;2052049;28;19926;-48
2022/05/29 00:49:34;;;;;;;;;;;;;;;22.70;51.24;99170.97;2058763;28;19917;-48
2022/05/29 00:50:34;;;;;;;;;;;;;;;22.71;51.41;99161.72;2057521;28;19941;-48
2022/05/29 00:51:37;;;;;;;;;;;;;;;22.69;51.29;99164.66;2053899;28;19918;-48
2022/05/29 00:52:38;;;;;;;;;;;;;;;22.71;51.39;99166.34;2053160;28;19918;-50
2022/05/29 00:53:38;;;;;;;;;;;;;;;22.69;51.33;99170.13;2052560;28;19918;-48
2022/05/29 00:54:58;;;;;;;;;;;;;;;22.70;51.15;99160.00;2052278;28;19956;-49
2022/05/29 00:56:00;;;;;;;;;;;;;;;22.70;51.26;99165.50;2051681;28;20514;-47
2022/05/29 00:57:01;;;;;;;;;;;;;;;22.70;51.32;99154.50;2051894;28;19993;-48
2022/05/29 00:58:03;;;;;;;;;;;;;;;22.71;51.34;99166.34;2047463;28;20231;-50
2022/05/29 00:59:05;;;;;;;;;;;;;;;22.69;51.30;99159.16;2051569;28;20180;-48
2022/05/29 01:00:11;;;;;;;;;;;;;;;22.71;51.34;99160.84;2052606;28;19940;-50
2022/05/29 01:01:11;;;;;;;;;;;;;;;22.70;51.32;99154.50;2053639;28;19921;-50
2022/05/29 01:02:12;;;;;;;;;;;;;;;22.71;51.39;99163.59;2057426;28;20000;-48
2022/05/29 01:03:13;;;;;;;;;;;;;;;22.72;51.21;99165.31;2061269;28;19918;-50
2022/05/29 01:04:14;;;;;;;;;;;;;;;22.71;51.21;99155.34;2051902;28;19957;-48
2022/05/29 01:05:16;;;;;;;;;;;;;;;22.70;51.16;99162.75;2051307;28;19984;-50
2022/05/29 01:06:16;;;;;;;;;;;;;;;22.71;51.21;99166.34;2051486;28;20080;-48
2022/05/29 01:07:18;;;;;;;;;;;;;;;22.70;51.42;99160.00;2052038;28;19918;-48
2022/05/29 01:08:24;;;;;;;;;;;;;;;22.71;51.44;99163.59;2051522;28;20347;-48
2022/05/29 01:09:24;;;;;;;;;;;;;;;22.69;51.39;99164.66;2051268;28;19937;-48
2022/05/29 01:10:31;;;;;;;;;;;;;;;22.71;51.42;99158.09;2051942;28;20417;-48
2022/05/29 01:11:47;;;;;;;;;;;;;;;22.69;51.31;99153.66;2047577;28;20400;-50
2022/05/29 01:13:05;;;;;;;;;;;;;;;22.70;51.22;99154.50;2052246;28;20032;-48
2022/05/29 01:14:14;;;;;;;;;;;;;;;22.71;51.34;99155.34;2047313;28;19914;-50
2022/05/29 01:15:20;;;;;;;;;;;;;;;22.69;51.21;99159.16;2051647;28;19928;-49
2022/05/29 01:16:31;;;;;;;;;;;;;;;22.69;51.43;99159.16;2053093;28;19918;-49
2022/05/29 01:17:32;;;;;;;;;;;;;;;22.71;51.46;99155.34;2053704;28;19925;-49
2022/05/29 01:18:41;;;;;;;;;;;;;;;22.68;51.38;99157.47;2052898;28;19910;-49
2022/05/29 01:19:54;;;;;;;;;;;;;;;22.67;51.56;99155.75;2054624;28;20716;-48
2022/05/29 01:21:10;;;;;;;;;;;;;;;22.68;51.65;99156.59;2054232;28;19932;-49
2022/05/29 01:22:14;;;;;;;;;;;;;;;22.67;51.53;99161.25;2050569;28;19918;-49
2022/05/29 01:23:40;;;;;;;;;;;;;;;22.67;51.84;99157.66;2053453;28;20508;-49
2022/05/29 01:25:00;;;;;;;;;;;;;;;22.67;51.80;99155.75;2054272;28;19917;-48
2022/05/29 01:26:10;;;;;;;;;;;;;;;22.66;51.56;99153.19;2051495;28;19973;-49
2022/05/29 01:27:10;;;;;;;;;;;;;;;22.66;51.70;99150.44;2053568;28;20186;-48
2022/05/29 01:28:13;;;;;;;;;;;;;;;22.66;51.79;99154.06;2046622;28;19961;-48
2022/05/29 01:29:16;;;;;;;;;;;;;;;22.66;51.72;99159.56;2051277;28;19929;-48
2022/05/29 01:30:17;;;;;;;;;;;;;;;22.65;51.62;99155.09;2053674;28;20344;-48
2022/05/29 01:31:26;;;;;;;;;;;;;;;22.65;51.66;99148.75;2048872;28;19925;-49
2022/05/29 01:32:34;;;;;;;;;;;;;;;22.66;51.60;99151.31;2052311;28;20288;-51
2022/05/29 01:33:47;;;;;;;;;;;;;;;22.65;51.46;99152.34;2050581;28;19918;-51
2022/05/29 01:34:51;;;;;;;;;;;;;;;22.66;51.49;99147.69;2053601;28;20004;-48
2022/05/29 01:36:15;;;;;;;;;;;;;;;22.67;51.32;99143.91;2054306;28;19925;-48
2022/05/29 01:37:27;;;;;;;;;;;;;;;22.66;51.32;99148.56;2047470;28;19910;-50
2022/05/29 01:38:39;;;;;;;;;;;;;;;22.67;51.46;99143.91;2049296;28;20347;-50
2022/05/29 01:39:46;;;;;;;;;;;;;;;22.67;51.47;99143.91;2052415;28;20209;-48
2022/05/29 01:40:53;;;;;;;;;;;;;;;22.66;51.42;99145.81;2050154;28;19922;-50
2022/05/29 01:41:58;;;;;;;;;;;;;;;22.66;51.56;99143.06;2053596;28;19924;-48
2022/05/29 01:43:04;;;;;;;;;;;;;;;22.66;51.46;99134.84;2053890;28;19917;-49
2022/05/29 01:44:13;;;;;;;;;;;;;;;22.66;51.46;99137.56;2053060;28;19920;-48
2022/05/29 01:45:21;;;;;;;;;;;;;;;22.67;51.45;99132.94;2048629;28;19921;-49
2022/05/29 01:46:29;;;;;;;;;;;;;;;22.66;51.47;99134.84;2051641;28;19953;-51
2022/05/29 01:47:41;;;;;;;;;;;;;;;22.66;51.50;99137.56;2052200;28;21186;-48
2022/05/29 01:48:56;;;;;;;;;;;;;;;22.67;51.64;99135.69;2054193;28;19922;-49
2022/05/29 01:50:01;;;;;;;;;;;;;;;22.65;51.59;99127.63;2052531;28;21002;-48
2022/05/29 01:51:21;;;;;;;;;;;;;;;22.66;51.63;99131.22;2058121;28;20052;-49
2022/05/29 01:52:33;;;;;;;;;;;;;;;22.65;51.49;99127.63;2056917;28;20024;-48
2022/05/29 01:53:40;;;;;;;;;;;;;;;22.65;51.62;99124.88;2053796;28;19921;-48
2022/05/29 01:54:52;;;;;;;;;;;;;;;22.64;51.56;99117.69;2046217;28;19918;-48
2022/05/29 01:55:59;;;;;;;;;;;;;;;22.65;51.80;99124.88;2048411;28;19910;-48
2022/05/29 01:57:03;;;;;;;;;;;;;;;22.64;51.62;99123.19;2046081;28;19910;-51
2022/05/29 01:58:14;;;;;;;;;;;;;;;22.64;51.73;99117.69;2049813;28;19925;-48
2022/05/29 01:59:21;;;;;;;;;;;;;;;22.63;51.62;99115.97;2048026;28;19918;-50
2022/05/29 02:00:22;;;;;;;;;;;;;;;22.63;51.81;99115.13;2045704;28;20265;-48
2022/05/29 02:01:26;;;;;;;;;;;;;;;22.62;51.74;99114.28;2052477;28;20156;-48
2022/05/29 02:02:30;;;;;;;;;;;;;;;22.62;51.82;99114.28;2053027;28;20768;-48
2022/05/29 02:03:34;;;;;;;;;;;;;;;22.63;51.84;99121.47;2046521;28;19910;-51
2022/05/29 02:04:39;;;;;;;;;;;;;;;22.62;51.76;99119.78;2052125;28;20053;-48
2022/05/29 02:06:08;;;;;;;;;;;;;;;22.61;51.73;99112.59;2052614;28;20012;-48
2022/05/29 02:08:38;;;;;;;;;;;;;;;22.61;51.74;99120.84;2051879;28;19925;-48
2022/05/29 02:09:41;;;;;;;;;;;;;;;22.61;51.63;99117.22;2049994;28;19918;-48
2022/05/29 02:10:47;;;;;;;;;;;;;;;22.61;51.67;99123.59;2050596;28;20049;-49
2022/05/29 02:11:55;;;;;;;;;;;;;;;22.62;51.71;99119.78;2060934;28;19917;-48
2022/05/29 02:13:12;;;;;;;;;;;;;;;22.63;51.73;99126.13;2056446;28;19934;-49
2022/05/29 02:14:15;;;;;;;;;;;;;;;22.62;51.58;99125.28;2052150;28;19918;-48
2022/05/29 02:15:18;;;;;;;;;;;;;;;22.63;51.52;99123.38;2051921;28;19937;-48
2022/05/29 02:16:22;;;;;;;;;;;;;;;22.63;51.65;99115.97;2053524;28;19944;-48
2022/05/29 02:17:28;;;;;;;;;;;;;;;22.62;51.50;99114.28;2048429;28;19918;-49
2022/05/29 02:18:46;;;;;;;;;;;;;;;22.63;51.63;99115.97;2048605;28;20647;-48
2022/05/29 02:19:50;;;;;;;;;;;;;;;22.63;51.47;99115.97;2053359;28;20934;-48
2022/05/29 02:20:52;;;;;;;;;;;;;;;22.63;51.68;99110.47;2048547;28;19929;-48
2022/05/29 02:22:12;;;;;;;;;;;;;;;22.63;51.71;99112.38;2054752;28;19918;-49
2022/05/29 02:23:25;;;;;;;;;;;;;;;22.64;51.43;99116.84;2052450;28;19924;-49
2022/05/29 02:24:37;;;;;;;;;;;;;;;22.63;51.68;99112.38;2049592;28;20113;-49
2022/05/29 02:25:39;;;;;;;;;;;;;;;22.63;51.67;99113.22;2053091;28;20056;-50
2022/05/29 02:26:43;;;;;;;;;;;;;;;22.62;51.67;99119.78;2052166;28;20390;-48
2022/05/29 02:27:50;;;;;;;;;;;;;;;22.63;51.67;99115.13;2046531;28;19925;-48
2022/05/29 02:28:52;;;;;;;;;;;;;;;22.62;51.85;99113.44;2051035;28;19918;-49
2022/05/29 02:29:57;;;;;;;;;;;;;;;22.63;51.60;99109.63;2052693;28;19913;-49
2022/05/29 02:31:06;;;;;;;;;;;;;;;22.63;51.89;99115.13;2047478;28;20012;-49
2022/05/29 02:32:07;;;;;;;;;;;;;;;22.61;51.69;99109.84;2047688;28;19922;-48
2022/05/29 02:33:22;;;;;;;;;;;;;;;22.61;51.91;99112.59;2048835;28;20185;-49
2022/05/29 02:34:35;;;;;;;;;;;;;;;22.61;51.73;99114.47;2052741;28;19968;-50
2022/05/29 02:35:35;;;;;;;;;;;;;;;22.61;51.80;99106.22;2044830;28;19925;-48
2022/05/29 02:36:56;;;;;;;;;;;;;;;22.61;51.94;99112.59;2044520;28;19918;-47
2022/05/29 02:38:11;;;;;;;;;;;;;;;22.59;51.79;99100.97;2048272;28;20291;-49
2022/05/29 02:39:22;;;;;;;;;;;;;;;22.59;52.11;99109.19;2053974;28;20480;-52
2022/05/29 02:40:32;;;;;;;;;;;;;;;22.58;52.01;99110.22;2054854;28;19956;-48
2022/05/29 02:41:51;;;;;;;;;;;;;;;22.58;51.87;99107.47;2051893;28;19925;-49
2022/05/29 02:42:51;;;;;;;;;;;;;;;22.58;51.96;99101.13;2050758;28;19929;-49
2022/05/29 02:43:57;;;;;;;;;;;;;;;22.57;51.96;99111.28;2053986;28;20016;-49
2022/05/29 02:44:59;;;;;;;;;;;;;;;22.58;52.13;99115.72;2052252;28;19921;-49
2022/05/29 02:46:13;;;;;;;;;;;;;;;22.57;51.99;99116.78;2051729;28;19960;-50
2022/05/29 02:47:23;;;;;;;;;;;;;;;22.58;51.96;99112.97;2053617;28;20028;-48
2022/05/29 02:48:32;;;;;;;;;;;;;;;22.58;51.82;99118.47;2052148;28;19972;-48
2022/05/29 02:49:36;;;;;;;;;;;;;;;22.58;51.87;99121.22;2052793;28;20060;-50
2022/05/29 02:50:39;;;;;;;;;;;;;;;22.58;51.78;99117.63;2050410;28;19921;-48
2022/05/29 02:51:42;;;;;;;;;;;;;;;22.58;51.85;99115.72;2047574;28;20190;-49
2022/05/29 02:52:42;;;;;;;;;;;;;;;22.59;51.87;99120.19;2048599;28;19925;-49
2022/05/29 02:53:46;;;;;;;;;;;;;;;22.59;51.70;99122.09;2051945;28;20247;-48
2022/05/29 02:54:46;;;;;;;;;;;;;;;22.59;51.70;99122.09;2053152;28;19968;-50
2022/05/29 02:55:47;;;;;;;;;;;;;;;22.59;51.72;99125.66;2053605;28;19924;-48
2022/05/29 02:56:47;;;;;;;;;;;;;;;22.59;51.68;99114.69;2051868;28;19967;-48
2022/05/29 02:57:49;;;;;;;;;;;;;;;22.59;51.75;99116.59;2053409;28;19960;-48
2022/05/29 02:58:52;;;;;;;;;;;;;;;22.58;51.54;99112.97;2053014;28;19918;-51
2022/05/29 02:59:56;;;;;;;;;;;;;;;22.58;51.76;99112.97;2050327;28;19917;-49
2022/05/29 03:01:02;;;;;;;;;;;;;;;22.59;51.46;99109.19;2053053;28;20366;-49
2022/05/29 03:02:11;;;;;;;;;;;;;;;22.59;51.77;99114.69;2051133;28;20021;-48
2022/05/29 03:03:26;;;;;;;;;;;;;;;22.58;51.53;99112.97;2051983;28;20271;-49
2022/05/29 03:04:37;;;;;;;;;;;;;;;22.58;51.64;99112.97;2050274;28;20434;-49
2022/05/29 03:05:37;;;;;;;;;;;;;;;22.58;51.64;99118.47;2053119;28;19918;-50
2022/05/29 03:06:57;;;;;;;;;;;;;;;22.58;51.73;99112.13;2052570;28;19922;-48
2022/05/29 03:08:17;;;;;;;;;;;;;;;22.57;51.81;99114.03;2053077;28;20032;-51
2022/05/29 03:09:23;;;;;;;;;;;;;;;22.56;51.74;99115.06;2051194;28;19972;-49
2022/05/29 03:10:29;;;;;;;;;;;;;;;22.57;51.86;99108.53;2054028;28;20256;-50
2022/05/29 03:11:39;;;;;;;;;;;;;;;22.56;51.95;99109.56;2052212;28;19953;-48
2022/05/29 03:12:46;;;;;;;;;;;;;;;22.55;52.03;99107.88;2053731;28;19926;-50
2022/05/29 03:13:56;;;;;;;;;;;;;;;22.54;52.02;99106.19;2053157;28;19917;-48
2022/05/29 03:15:06;;;;;;;;;;;;;;;22.54;52.13;99106.19;2053060;28;19918;-48
2022/05/29 03:16:16;;;;;;;;;;;;;;;22.54;52.14;99100.69;2051463;28;19950;-48
2022/05/29 03:17:22;;;;;;;;;;;;;;;22.53;51.88;99098.97;2051471;28;19917;-48
2022/05/29 03:18:22;;;;;;;;;;;;;;;22.54;51.90;99095.22;2052193;28;19917;-48
2022/05/29 03:19:22;;;;;;;;;;;;;;;22.53;51.87;99096.22;2052895;28;19910;-48
2022/05/29 03:20:32;;;;;;;;;;;;;;;22.53;52.16;99095.38;2049561;28;20431;-48
2022/05/29 03:21:47;;;;;;;;;;;;;;;22.52;51.89;99097.28;2053325;28;19925;-49
2022/05/29 03:22:50;;;;;;;;;;;;;;;22.52;51.96;99091.81;2047475;28;19917;-50
2022/05/29 03:23:55;;;;;;;;;;;;;;;22.53;51.82;99093.47;2052561;28;19972;-49
2022/05/29 03:25:14;;;;;;;;;;;;;;;22.54;51.78;99100.69;2050621;28;19920;-48
2022/05/29 03:26:21;;;;;;;;;;;;;;;22.54;51.78;99100.69;2049461;28;20426;-49
2022/05/29 03:27:24;;;;;;;;;;;;;;;22.53;51.68;99093.47;2050498;28;19917;-48
2022/05/29 03:28:27;;;;;;;;;;;;;;;22.53;51.84;99098.97;2054027;28;19972;-48
2022/05/29 03:29:31;;;;;;;;;;;;;;;22.54;51.71;99088.84;2049818;28;20147;-48
2022/05/29 03:30:33;;;;;;;;;;;;;;;22.54;51.70;99089.72;2052293;28;20213;-48
2022/05/29 03:31:34;;;;;;;;;;;;;;;22.54;51.56;99095.22;2047716;28;19918;-50
2022/05/29 03:32:35;;;;;;;;;;;;;;;22.53;51.58;99093.47;2052423;28;19916;-49
2022/05/29 03:33:38;;;;;;;;;;;;;;;22.54;51.49;99095.22;2052498;28;19972;-48
2022/05/29 03:34:39;;;;;;;;;;;;;;;22.54;51.49;99095.22;2051623;28;20354;-49
2022/05/29 03:35:51;;;;;;;;;;;;;;;22.53;51.63;99090.75;2051575;28;20016;-48
2022/05/29 03:36:52;;;;;;;;;;;;;;;22.54;51.65;99086.97;2051540;28;20398;-50
2022/05/29 03:37:53;;;;;;;;;;;;;;;22.54;51.54;99094.34;2050528;28;19914;-48
2022/05/29 03:38:53;;;;;;;;;;;;;;;22.54;51.59;99092.47;2053151;28;20324;-52
2022/05/29 03:39:53;;;;;;;;;;;;;;;22.55;51.55;99091.41;2049344;28;19918;-52
2022/05/29 03:40:54;;;;;;;;;;;;;;;22.54;51.64;99100.69;2050670;28;19929;-51
2022/05/29 03:41:54;;;;;;;;;;;;;;;22.54;51.62;99092.47;2051969;28;19918;-48
2022/05/29 03:42:55;;;;;;;;;;;;;;;22.54;51.67;99100.69;2055767;28;19937;-49
2022/05/29 03:43:55;;;;;;;;;;;;;;;22.54;51.73;99094.34;2056455;28;19963;-49
2022/05/29 03:44:56;;;;;;;;;;;;;;;22.53;51.66;99090.75;2051397;28;19917;-48
2022/05/29 03:45:56;;;;;;;;;;;;;;;22.54;51.49;99095.22;2052606;28;19928;-48
2022/05/29 03:46:57;;;;;;;;;;;;;;;22.53;51.61;99093.47;2045457;28;20013;-48
2022/05/29 03:47:57;;;;;;;;;;;;;;;22.52;51.65;99093.69;2049485;28;19921;-49
2022/05/29 03:48:57;;;;;;;;;;;;;;;22.52;51.77;99086.31;2048500;28;19922;-48
2022/05/29 03:49:58;;;;;;;;;;;;;;;22.52;51.88;99096.44;2051327;28;19913;-48
2022/05/29 03:51:05;;;;;;;;;;;;;;;22.50;51.71;99091.16;2049964;28;19917;-48
2022/05/29 03:52:05;;;;;;;;;;;;;;;22.50;52.01;99093.88;2049972;28;19925;-51
2022/05/29 03:53:05;;;;;;;;;;;;;;;22.49;52.34;99089.47;2046852;28;19922;-48
2022/05/29 03:54:06;;;;;;;;;;;;;;;22.50;52.21;99091.16;2045826;28;19918;-48
2022/05/29 03:55:07;;;;;;;;;;;;;;;22.49;52.48;99086.72;2048604;28;20249;-50
2022/05/29 03:56:07;;;;;;;;;;;;;;;22.48;52.40;99085.00;2049864;28;19914;-50
2022/05/29 03:57:07;;;;;;;;;;;;;;;22.48;52.43;99085.00;2050673;28;20291;-48
2022/05/29 03:58:08;;;;;;;;;;;;;;;22.48;52.50;99090.47;2047386;28;19917;-48
2022/05/29 03:59:08;;;;;;;;;;;;;;;22.47;52.65;99091.53;2055623;28;19929;-49
2022/05/29 04:00:10;;;;;;;;;;;;;;;22.47;52.40;99083.31;2057859;28;19949;-50
2022/05/29 04:01:10;;;;;;;;;;;;;;;22.47;52.43;99095.13;2050546;28;19918;-49
2022/05/29 04:02:11;;;;;;;;;;;;;;;22.47;52.39;99088.78;2049389;28;19968;-48
2022/05/29 04:03:11;;;;;;;;;;;;;;;22.47;52.46;99089.63;2048096;28;20128;-49
2022/05/29 04:04:12;;;;;;;;;;;;;;;22.47;52.56;99094.28;2050044;28;20229;-48
2022/05/29 04:05:14;;;;;;;;;;;;;;;22.47;52.52;99088.78;2049771;28;19921;-50
2022/05/29 04:06:14;;;;;;;;;;;;;;;22.47;52.39;99094.28;2051855;28;19918;-49
2022/05/29 04:07:15;;;;;;;;;;;;;;;22.47;52.40;99083.31;2048208;28;20787;-48
2022/05/29 04:12:13;;;;;;;;;;;;;;;22.47;52.15;99089.63;2049137;28;19929;-49
2022/05/29 04:13:13;;;;;;;;;;;;;;;22.47;51.96;99088.78;2047351;28;20092;-48
2022/05/29 04:14:14;;;;;;;;;;;;;;;22.47;52.02;99091.53;2049194;28;19925;-48
2022/05/29 04:15:14;;;;;;;;;;;;;;;22.48;52.00;99085.00;2051087;28;20012;-51
2022/05/29 04:16:14;;;;;;;;;;;;;;;22.47;52.03;99097.03;2049359;28;19917;-48
2022/05/29 04:17:16;;;;;;;;;;;;;;;22.47;51.95;99088.78;2050996;28;19918;-49
2022/05/29 04:18:18;;;;;;;;;;;;;;;22.47;51.81;99088.78;2051643;28;20221;-50
2022/05/29 04:19:18;;;;;;;;;;;;;;;22.46;51.84;99093.44;2048734;28;19968;-49
2022/05/29 04:20:19;;;;;;;;;;;;;;;22.46;51.92;99093.44;2050554;28;20033;-48
2022/05/29 04:21:19;;;;;;;;;;;;;;;22.46;51.85;99096.19;2048321;28;19942;-48
2022/05/29 04:22:22;;;;;;;;;;;;;;;22.47;51.69;99091.53;2050896;28;20181;-49
2022/05/29 04:23:22;;;;;;;;;;;;;;;22.46;51.84;99093.44;2047998;28;19957;-48
2022/05/29 04:24:23;;;;;;;;;;;;;;;22.45;51.70;99097.22;2047773;28;19910;-49
2022/05/29 04:25:23;;;;;;;;;;;;;;;22.45;51.80;99096.38;2048764;28;19917;-52
2022/05/29 04:26:23;;;;;;;;;;;;;;;22.44;51.97;99094.66;2047708;28;20201;-51
2022/05/29 04:27:24;;;;;;;;;;;;;;;22.43;51.98;99095.72;2046508;28;19926;-48
2022/05/29 04:28:24;;;;;;;;;;;;;;;22.43;51.73;99101.22;2049249;28;19922;-49
2022/05/29 04:29:25;;;;;;;;;;;;;;;22.44;51.99;99103.78;2050201;28;19947;-50
2022/05/29 04:30:25;;;;;;;;;;;;;;;22.44;51.86;99102.91;2048198;28;19917;-48
2022/05/29 04:31:25;;;;;;;;;;;;;;;22.43;51.99;99092.97;2052329;28;19909;-48
2022/05/29 04:33:45;;;;;;;;;;;;;;;22.42;52.06;99102.25;2049059;28;19949;-52
2022/05/29 04:34:45;;;;;;;;;;;;;;;22.43;51.81;99103.94;2048529;28;20317;-51
2022/05/29 04:35:50;;;;;;;;;;;;;;;22.42;51.86;99107.75;2053366;28;20363;-49
2022/05/29 04:36:50;;;;;;;;;;;;;;;22.42;51.96;99100.38;2051651;28;19909;-48
2022/05/29 04:37:51;;;;;;;;;;;;;;;22.41;51.83;99103.28;2048478;28;19914;-49
2022/05/29 04:38:51;;;;;;;;;;;;;;;22.42;51.89;99105.84;2050841;28;19910;-50
2022/05/29 04:39:52;;;;;;;;;;;;;;;22.42;51.57;99103.09;2049583;28;19917;-50
2022/05/29 04:40:52;;;;;;;;;;;;;;;22.42;51.82;99097.63;2049312;28;19924;-48
2022/05/29 04:41:53;;;;;;;;;;;;;;;22.42;51.69;99107.75;2048084;28;19968;-48
2022/05/29 04:42:53;;;;;;;;;;;;;;;22.43;51.54;99101.22;2050618;28;20097;-48
2022/05/29 04:43:54;;;;;;;;;;;;;;;22.43;51.63;99102.06;2049168;28;20297;-48
2022/05/29 04:44:54;;;;;;;;;;;;;;;22.43;51.56;99103.94;2051607;28;19918;-49
2022/05/29 04:45:55;;;;;;;;;;;;;;;22.43;51.30;99106.69;2051310;28;19909;-50
2022/05/29 04:46:57;;;;;;;;;;;;;;;22.43;51.27;99095.72;2048915;28;20395;-51
2022/05/29 04:47:58;;;;;;;;;;;;;;;22.43;51.36;99104.78;2047231;28;19976;-49
2022/05/29 04:48:58;;;;;;;;;;;;;;;22.43;51.49;99109.44;2048162;28;19922;-48
2022/05/29 04:49:58;;;;;;;;;;;;;;;22.44;51.44;99111.13;2049443;28;19918;-48
2022/05/29 04:51:00;;;;;;;;;;;;;;;22.43;51.43;99107.53;2047772;28;19918;-48
2022/05/29 04:52:00;;;;;;;;;;;;;;;22.44;51.43;99111.13;2050823;28;19957;-49
2022/05/29 04:53:01;;;;;;;;;;;;;;;22.42;51.44;99100.38;2051450;28;20367;-50
2022/05/29 04:54:01;;;;;;;;;;;;;;;22.44;51.33;99100.16;2050004;28;19921;-50
2022/05/29 04:55:02;;;;;;;;;;;;;;;22.44;51.29;99100.16;2051760;28;20623;-52
2022/05/29 04:56:02;;;;;;;;;;;;;;;22.43;51.19;99104.78;2051080;28;19988;-50
2022/05/29 04:57:03;;;;;;;;;;;;;;;22.44;51.42;99108.38;2045951;28;19925;-48
2022/05/29 04:58:04;;;;;;;;;;;;;;;22.45;51.22;99105.47;2051580;28;20623;-48
2022/05/29 04:59:04;;;;;;;;;;;;;;;22.46;51.32;99103.56;2049034;28;19991;-47
2022/05/29 05:00:05;;;;;;;;;;;;;;;22.47;51.21;99113.50;2058934;28;19979;-55
2022/05/29 05:01:05;;;;;;;;;;;;;;;22.47;51.43;99110.75;2050070;28;19918;-49
2022/05/29 05:02:05;;;;;;;;;;;;;;;22.48;51.14;99115.19;2051649;28;19980;-50
2022/05/29 05:03:07;;;;;;;;;;;;;;;22.48;51.22;99116.03;2052705;28;19924;-47
2022/05/29 05:04:08;;;;;;;;;;;;;;;22.48;51.14;99110.53;2049463;28;19959;-47
2022/05/29 05:05:08;;;;;;;;;;;;;;;22.49;51.23;99114.16;2050493;28;19941;-48
2022/05/29 05:06:09;;;;;;;;;;;;;;;22.49;51.30;99108.69;2052178;28;20261;-47
2022/05/29 05:07:09;;;;;;;;;;;;;;;22.48;51.30;99107.81;2051643;28;19965;-51
2022/05/29 05:08:10;;;;;;;;;;;;;;;22.50;51.35;99112.28;2051530;28;19925;-50
2022/05/29 05:09:10;;;;;;;;;;;;;;;22.48;51.20;99101.47;2051031;28;20285;-49
2022/05/29 05:10:12;;;;;;;;;;;;;;;22.49;51.35;99105.94;2054463;28;19918;-47
2022/05/29 05:11:12;;;;;;;;;;;;;;;22.49;51.16;99105.94;2051158;28;19910;-48
2022/05/29 05:12:13;;;;;;;;;;;;;;;22.48;51.35;99107.81;2053073;28;20409;-48
2022/05/29 05:13:13;;;;;;;;;;;;;;;22.49;51.35;99111.44;2051836;28;19906;-48
2022/05/29 05:14:13;;;;;;;;;;;;;;;22.48;51.33;99107.81;2047299;28;19911;-48
2022/05/29 05:15:15;;;;;;;;;;;;;;;22.49;51.22;99108.69;2055285;28;19986;-49
2022/05/29 05:16:15;;;;;;;;;;;;;;;22.50;51.16;99121.34;2048568;28;19960;-48
2022/05/29 05:17:16;;;;;;;;;;;;;;;22.50;51.31;99110.38;2053418;28;20531;-48
2022/05/29 05:18:16;;;;;;;;;;;;;;;22.51;51.42;99116.69;2046462;28;20334;-48
2022/05/29 05:19:17;;;;;;;;;;;;;;;22.50;51.45;99115.84;2053039;28;19961;-48
2022/05/29 05:20:17;;;;;;;;;;;;;;;22.51;51.43;99117.53;2051195;28;20351;-49
2022/05/29 05:21:17;;;;;;;;;;;;;;;22.52;51.42;99118.41;2055332;28;19921;-51
2022/05/29 05:22:18;;;;;;;;;;;;;;;22.52;51.30;99123.91;2048341;28;19910;-49
2022/05/29 05:23:18;;;;;;;;;;;;;;;22.52;51.49;99123.91;2053238;28;20398;-48
2022/05/29 05:24:19;;;;;;;;;;;;;;;22.53;51.41;99128.34;2050150;28;19926;-51
2022/05/29 05:25:19;;;;;;;;;;;;;;;22.53;51.52;99123.69;2050063;28;19928;-49
2022/05/29 05:26:19;;;;;;;;;;;;;;;22.53;51.58;99120.94;2050753;28;20016;-49
2022/05/29 05:27:20;;;;;;;;;;;;;;;22.53;51.50;99126.44;2049765;28;20861;-50
2022/05/29 05:28:20;;;;;;;;;;;;;;;22.54;51.68;99122.66;2052293;28;19921;-49
2022/05/29 05:29:20;;;;;;;;;;;;;;;22.54;51.49;99122.66;2050362;28;20005;-49
2022/05/29 05:30:21;;;;;;;;;;;;;;;22.53;51.68;99120.94;2051905;28;19983;-49
2022/05/29 05:31:21;;;;;;;;;;;;;;;22.54;51.70;99122.66;2049570;28;19996;-50
2022/05/29 05:32:21;;;;;;;;;;;;;;;22.54;51.70;99133.66;2052654;28;20003;-51
2022/05/29 05:33:22;;;;;;;;;;;;;;;22.54;51.66;99125.41;2052085;28;19913;-50
2022/05/29 05:34:23;;;;;;;;;;;;;;;22.54;51.75;99128.16;2050765;28;19910;-48
2022/05/29 05:35:23;;;;;;;;;;;;;;;22.53;51.65;99126.44;2051419;28;19917;-49
2022/05/29 05:36:23;;;;;;;;;;;;;;;22.54;51.63;99124.53;2050664;28;20916;-50
2022/05/29 05:37:24;;;;;;;;;;;;;;;22.53;51.75;99126.44;2055311;28;19969;-49
2022/05/29 05:38:24;;;;;;;;;;;;;;;22.53;51.52;99126.44;2052336;28;19953;-50
2022/05/29 05:39:24;;;;;;;;;;;;;;;22.53;51.57;99131.94;2047880;28;19949;-50